Terminal Aerodrome Forecast
Issued by NWS

Home | Current Version | Previous Version | Text Only | Print | Product List | Glossary On
Versions: 1 2 3 4 5 6 7 8 9 10 11 12
000
FTUS46 KPDT 221700
TAFDLS
TAF
KDLS 221728Z 2218/2318 32010KT P6SM VCSH BKN100
     FM222000 32009KT P6SM SCT060 BKN100
      TEMPO 2220/2223 VRB20G35KT -TSRA BKN050CB
     FM222300 34009KT P6SM VCTS BKN050CB OVC100
     FM230600 30008KT P6SM VCSH SCT060 BKN100=

USA.gov is the U.S. government's official web portal to all federal, state and local government web resources and services.